Time;durP1;ratioP1;P1;durP2;ratioP2;P2;SDS_P1;SDS_P2;PMS_P1;PMS_P2;Temp;Humidity;BMP_temperature;BMP_pressure;BME280_temperature;BME280_humidity;BME280_pressure;Samples;Min_cycle;Max_cycle;Signal;HPM_P1;HPM_P2
2021/09/25 00:01:47;;;;;;;5.07;1.25;;;;;;;;;;5009730;28;20354;-65
2021/09/25 00:04:13;;;;;;;5.30;1.10;;;;;;;;;;5094763;28;20365;-66
2021/09/25 00:06:39;;;;;;;6.40;1.30;;;;;;;;;;5010315;28;20101;-65
2021/09/25 00:09:05;;;;;;;5.72;1.00;;;;;;;;;;5009931;28;20042;-68
2021/09/25 00:11:32;;;;;;;8.88;1.20;;;;;;;;;;5010190;28;20040;-67
2021/09/25 00:13:58;;;;;;;12.45;1.10;;;;;;;;;;5010108;28;20030;-67
2021/09/25 00:16:27;;;;;;;7.40;1.30;;;;;;;;;;5009958;28;20034;-66
2021/09/25 00:18:54;;;;;;;13.02;1.27;;;;;;;;;;5009416;28;20037;-66
2021/09/25 00:21:20;;;;;;;5.70;1.00;;;;;;;;;;5010033;28;20113;-66
2021/09/25 00:23:46;;;;;;;5.75;1.17;;;;;;;;;;5009846;28;20085;-66
2021/09/25 00:26:12;;;;;;;5.05;1.00;;;;;;;;;;5009803;28;20061;-66
2021/09/25 00:28:38;;;;;;;6.88;1.05;;;;;;;;;;5009781;28;20118;-65
2021/09/25 00:31:04;;;;;;;7.38;0.93;;;;;;;;;;5009831;28;20041;-68
2021/09/25 00:33:30;;;;;;;6.57;1.10;;;;;;;;;;5077600;28;20026;-67
2021/09/25 00:35:56;;;;;;;5.07;1.25;;;;;;;;;;5009822;28;20473;-67
2021/09/25 00:38:22;;;;;;;10.02;1.10;;;;;;;;;;5009989;28;20026;-65
2021/09/25 00:40:48;;;;;;;10.68;1.23;;;;;;;;;;5066769;28;20119;-65
2021/09/25 00:43:14;;;;;;;7.03;1.50;;;;;;;;;;5133600;28;20032;-68
2021/09/25 00:45:40;;;;;;;8.32;1.25;;;;;;;;;;5133199;27;20073;-65
2021/09/25 00:48:06;;;;;;;8.57;1.20;;;;;;;;;;5133420;27;20112;-67
2021/09/25 00:50:33;;;;;;;5.05;0.90;;;;;;;;;;5133549;28;20050;-68
2021/09/25 00:52:59;;;;;;;3.83;1.00;;;;;;;;;;5041964;28;20034;-66
2021/09/25 00:55:25;;;;;;;7.25;1.30;;;;;;;;;;5009939;28;20038;-66
2021/09/25 00:57:53;;;;;;;6.25;0.98;;;;;;;;;;5013019;28;20022;-66
2021/09/25 01:00:19;;;;;;;4.30;0.98;;;;;;;;;;5012859;28;20033;-64
2021/09/25 01:02:45;;;;;;;4.97;1.30;;;;;;;;;;5012936;28;20422;-66
2021/09/25 01:05:15;;;;;;;6.05;1.25;;;;;;;;;;5012768;28;20441;-65
2021/09/25 01:07:41;;;;;;;5.65;1.13;;;;;;;;;;5013283;28;20075;-66
2021/09/25 01:10:07;;;;;;;3.10;1.00;;;;;;;;;;5012923;28;20034;-66
2021/09/25 01:12:33;;;;;;;3.08;0.98;;;;;;;;;;5012745;28;20026;-68
2021/09/25 01:15:00;;;;;;;12.63;1.25;;;;;;;;;;5012759;28;20098;-67
2021/09/25 01:17:26;;;;;;;7.03;1.00;;;;;;;;;;5012519;28;20033;-67
2021/09/25 01:19:52;;;;;;;4.40;1.05;;;;;;;;;;5012592;28;20026;-68
2021/09/25 01:22:18;;;;;;;5.63;1.17;;;;;;;;;;5027142;28;20038;-66
2021/09/25 01:24:44;;;;;;;4.50;1.40;;;;;;;;;;5100625;28;20049;-65
2021/09/25 01:27:10;;;;;;;3.17;1.30;;;;;;;;;;5032507;28;20036;-65
2021/09/25 01:29:37;;;;;;;4.53;1.10;;;;;;;;;;5032191;28;20124;-67
2021/09/25 01:32:03;;;;;;;4.45;1.30;;;;;;;;;;5032072;28;20445;-68
2021/09/25 01:34:29;;;;;;;3.20;0.80;;;;;;;;;;5032376;28;20048;-65
2021/09/25 01:36:55;;;;;;;2.53;0.80;;;;;;;;;;5032474;28;20449;-66
2021/09/25 01:39:21;;;;;;;7.78;1.00;;;;;;;;;;5032449;28;20026;-66
2021/09/25 01:41:47;;;;;;;9.23;1.13;;;;;;;;;;5122758;27;20470;-65
2021/09/25 01:44:13;;;;;;;6.38;1.02;;;;;;;;;;5118193;27;20020;-66
2021/09/25 01:46:40;;;;;;;3.60;0.80;;;;;;;;;;5117832;27;20054;-64
2021/09/25 01:49:06;;;;;;;4.20;1.20;;;;;;;;;;5136389;27;20119;-65
2021/09/25 01:51:32;;;;;;;7.57;1.08;;;;;;;;;;5136411;27;20026;-63
2021/09/25 01:53:58;;;;;;;12.60;1.20;;;;;;;;;;5065381;27;20041;-66
2021/09/25 01:56:24;;;;;;;6.05;1.30;;;;;;;;;;5031685;28;20537;-65
2021/09/25 01:58:50;;;;;;;8.02;1.33;;;;;;;;;;5031731;28;20106;-66
2021/09/25 02:01:16;;;;;;;10.20;0.93;;;;;;;;;;5031844;28;20033;-66
2021/09/25 02:03:43;;;;;;;10.30;1.00;;;;;;;;;;5031592;28;20461;-66
2021/09/25 02:06:10;;;;;;;6.90;1.10;;;;;;;;;;5031484;28;20469;-65
2021/09/25 02:08:36;;;;;;;10.93;1.35;;;;;;;;;;5024077;28;20057;-66
2021/09/25 02:11:03;;;;;;;4.05;1.10;;;;;;;;;;5012037;28;20113;-65
2021/09/25 02:13:29;;;;;;;5.63;1.10;;;;;;;;;;5011800;28;20075;-66
2021/09/25 02:15:55;;;;;;;9.98;1.58;;;;;;;;;;5011458;28;20030;-67
2021/09/25 02:18:21;;;;;;;10.38;1.15;;;;;;;;;;5011588;28;20050;-63
2021/09/25 02:20:47;;;;;;;5.25;1.08;;;;;;;;;;5011750;28;20370;-66
2021/09/25 02:23:13;;;;;;;7.72;1.10;;;;;;;;;;5079677;28;20053;-66
2021/09/25 02:25:39;;;;;;;6.72;1.20;;;;;;;;;;5020203;28;20090;-65
2021/09/25 02:28:05;;;;;;;5.95;1.25;;;;;;;;;;5031485;28;20045;-64
2021/09/25 02:30:33;;;;;;;2.97;1.08;;;;;;;;;;5031869;28;20128;-62
2021/09/25 02:32:59;;;;;;;4.60;0.90;;;;;;;;;;5031231;28;20025;-65
2021/09/25 02:35:25;;;;;;;9.73;1.02;;;;;;;;;;5030799;28;20029;-66
2021/09/25 02:37:51;;;;;;;6.07;1.17;;;;;;;;;;5031353;28;20036;-65
2021/09/25 02:40:18;;;;;;;7.45;0.90;;;;;;;;;;5056750;27;20019;-63
2021/09/25 02:42:44;;;;;;;3.88;1.10;;;;;;;;;;5135582;27;20027;-65
2021/09/25 02:45:11;;;;;;;4.90;1.20;;;;;;;;;;5135533;27;20064;-66
2021/09/25 02:47:37;;;;;;;3.10;0.80;;;;;;;;;;5070939;27;20478;-67
2021/09/25 02:50:03;;;;;;;2.10;0.90;;;;;;;;;;5030929;28;20065;-66
2021/09/25 02:52:29;;;;;;;5.05;0.95;;;;;;;;;;5116151;27;20015;-66
2021/09/25 02:54:55;;;;;;;4.65;1.13;;;;;;;;;;5116950;27;20027;-65
2021/09/25 02:57:21;;;;;;;2.70;1.10;;;;;;;;;;5135130;27;20462;-66
2021/09/25 02:59:47;;;;;;;3.17;1.20;;;;;;;;;;5134609;27;20062;-66
2021/09/25 03:02:13;;;;;;;7.53;1.00;;;;;;;;;;5134688;27;20115;-65
2021/09/25 03:04:39;;;;;;;7.80;1.27;;;;;;;;;;5134903;27;20047;-67
2021/09/25 03:07:07;;;;;;;6.28;1.10;;;;;;;;;;5134438;27;20031;-67
2021/09/25 03:09:33;;;;;;;4.03;1.20;;;;;;;;;;5134557;27;20034;-66
2021/09/25 03:11:59;;;;;;;9.30;1.17;;;;;;;;;;5134580;27;20023;-66
2021/09/25 03:14:25;;;;;;;4.35;1.10;;;;;;;;;;5115972;27;20157;-66
2021/09/25 03:16:52;;;;;;;5.10;1.13;;;;;;;;;;5116321;27;20037;-68
2021/09/25 03:19:18;;;;;;;3.63;1.30;;;;;;;;;;5115150;27;20521;-62
2021/09/25 03:21:44;;;;;;;5.22;1.33;;;;;;;;;;5030435;28;20509;-68
2021/09/25 03:24:10;;;;;;;6.40;1.30;;;;;;;;;;5030306;28;20137;-67
2021/09/25 03:26:36;;;;;;;4.15;1.25;;;;;;;;;;5098449;28;20025;-66
2021/09/25 03:29:02;;;;;;;7.10;1.70;;;;;;;;;;5030294;28;20100;-66
2021/09/25 03:31:28;;;;;;;4.20;1.20;;;;;;;;;;5098327;28;20049;-67
2021/09/25 03:33:54;;;;;;;6.15;1.17;;;;;;;;;;5030034;28;20065;-67
2021/09/25 03:36:20;;;;;;;6.30;1.50;;;;;;;;;;5028871;28;20022;-66
2021/09/25 03:38:46;;;;;;;4.78;1.55;;;;;;;;;;5030934;28;20029;-65
2021/09/25 03:41:12;;;;;;;5.68;1.30;;;;;;;;;;5095040;27;20088;-63
2021/09/25 03:43:38;;;;;;;11.20;1.55;;;;;;;;;;5115373;27;20483;-66
2021/09/25 03:46:04;;;;;;;4.88;1.20;;;;;;;;;;5133949;27;20027;-66
2021/09/25 03:48:30;;;;;;;3.40;1.10;;;;;;;;;;5134011;27;20107;-66
2021/09/25 03:50:58;;;;;;;5.30;1.23;;;;;;;;;;5133982;27;20057;-66
2021/09/25 03:53:24;;;;;;;7.13;1.23;;;;;;;;;;5035573;28;20417;-65
2021/09/25 03:55:50;;;;;;;6.97;1.48;;;;;;;;;;5029947;28;20030;-66
2021/09/25 03:58:16;;;;;;;7.18;1.63;;;;;;;;;;5029986;28;20120;-67
2021/09/25 04:00:42;;;;;;;6.45;1.30;;;;;;;;;;5030066;28;20037;-65
2021/09/25 04:03:11;;;;;;;4.45;1.30;;;;;;;;;;5029866;28;20017;-64
2021/09/25 04:05:37;;;;;;;8.02;1.30;;;;;;;;;;5029790;28;20456;-66
2021/09/25 04:08:03;;;;;;;12.27;2.00;;;;;;;;;;5028060;28;20026;-65
2021/09/25 04:10:29;;;;;;;6.90;2.33;;;;;;;;;;5010054;28;20045;-66
2021/09/25 04:12:55;;;;;;;18.77;2.20;;;;;;;;;;5009887;28;20030;-63
2021/09/25 04:15:22;;;;;;;15.57;2.17;;;;;;;;;;5077533;28;20030;-63
2021/09/25 04:17:48;;;;;;;10.20;2.28;;;;;;;;;;5009895;28;20030;-64
2021/09/25 04:20:15;;;;;;;14.77;2.33;;;;;;;;;;5077965;28;20038;-67
2021/09/25 04:22:41;;;;;;;13.18;1.88;;;;;;;;;;5009820;28;20022;-65
2021/09/25 04:25:07;;;;;;;10.35;1.77;;;;;;;;;;5009746;28;20061;-67
2021/09/25 04:27:33;;;;;;;5.65;1.92;;;;;;;;;;5077599;28;20041;-66
2021/09/25 04:30:00;;;;;;;14.75;1.70;;;;;;;;;;5009888;28;20030;-66
2021/09/25 04:32:26;;;;;;;9.02;1.60;;;;;;;;;;5013156;28;20025;-66
2021/09/25 04:34:52;;;;;;;10.23;1.70;;;;;;;;;;5013234;28;20049;-65
2021/09/25 04:37:19;;;;;;;10.65;1.65;;;;;;;;;;5086042;28;20113;-66
2021/09/25 04:39:45;;;;;;;11.68;2.05;;;;;;;;;;5015584;27;20083;-66
2021/09/25 04:42:11;;;;;;;7.65;1.80;;;;;;;;;;5137283;27;20019;-66
2021/09/25 04:44:37;;;;;;;9.30;1.65;;;;;;;;;;5137546;27;20118;-65
2021/09/25 04:47:03;;;;;;;5.47;1.65;;;;;;;;;;5137308;27;20031;-67
2021/09/25 04:49:29;;;;;;;10.90;1.40;;;;;;;;;;5137246;27;20544;-66
2021/09/25 04:51:55;;;;;;;4.32;1.30;;;;;;;;;;5137376;27;20019;-63
2021/09/25 04:54:21;;;;;;;7.45;1.50;;;;;;;;;;5137284;27;20019;-63
2021/09/25 04:56:47;;;;;;;7.88;1.58;;;;;;;;;;5137109;27;20367;-66
2021/09/25 04:59:13;;;;;;;15.95;2.13;;;;;;;;;;5136956;27;20412;-62
2021/09/25 05:01:39;;;;;;;10.15;1.60;;;;;;;;;;5137024;27;20026;-65
2021/09/25 05:04:07;;;;;;;7.93;2.03;;;;;;;;;;5114875;27;20080;-62
2021/09/25 05:06:33;;;;;;;16.77;2.72;;;;;;;;;;5033471;27;20025;-64
2021/09/25 05:08:59;;;;;;;19.55;4.85;;;;;;;;;;5063727;27;20094;-63
2021/09/25 05:11:25;;;;;;;15.50;4.78;;;;;;;;;;5053221;27;20025;-63
2021/09/25 05:13:52;;;;;;;14.02;4.25;;;;;;;;;;5100783;28;20044;-63
2021/09/25 05:16:18;;;;;;;18.35;4.72;;;;;;;;;;5084956;27;20025;-62
2021/09/25 05:18:44;;;;;;;16.85;5.05;;;;;;;;;;5079099;27;20069;-63
2021/09/25 05:21:10;;;;;;;13.45;5.07;;;;;;;;;;5100522;27;20076;-63
2021/09/25 05:23:36;;;;;;;12.80;5.55;;;;;;;;;;5107790;27;20719;-63
2021/09/25 05:26:03;;;;;;;14.65;4.93;;;;;;;;;;5083446;27;20096;-63
2021/09/25 05:28:29;;;;;;;14.43;5.00;;;;;;;;;;5100191;28;20021;-64
2021/09/25 05:30:55;;;;;;;8.73;4.30;;;;;;;;;;5032783;28;20083;-63
2021/09/25 05:33:21;;;;;;;14.15;5.47;;;;;;;;;;5032040;28;20025;-63
2021/09/25 05:35:47;;;;;;;12.57;5.25;;;;;;;;;;5032133;28;20104;-62
2021/09/25 05:38:13;;;;;;;13.63;4.80;;;;;;;;;;5015770;28;20041;-63
2021/09/25 05:40:39;;;;;;;11.95;5.20;;;;;;;;;;5055457;27;20027;-63
2021/09/25 05:43:06;;;;;;;10.38;5.13;;;;;;;;;;5040080;27;20533;-63
2021/09/25 05:45:32;;;;;;;13.90;5.30;;;;;;;;;;5092542;27;20120;-62
2021/09/25 05:47:58;;;;;;;13.60;5.18;;;;;;;;;;5136067;27;20096;-63
2021/09/25 05:50:23;;;;;;;21.13;4.93;;;;;;;;;;5136245;27;20061;-64
2021/09/25 05:52:49;;;;;;;21.67;6.32;;;;;;;;;;5135958;27;20062;-62
2021/09/25 05:55:15;;;;;;;16.38;5.30;;;;;;;;;;5135872;27;20023;-64
2021/09/25 05:57:44;;;;;;;14.70;5.45;;;;;;;;;;5117388;27;20023;-63
2021/09/25 06:00:11;;;;;;;18.00;6.40;;;;;;;;;;5135882;27;20050;-63
2021/09/25 06:02:38;;;;;;;13.52;5.10;;;;;;;;;;5117435;27;20022;-64
2021/09/25 06:05:04;;;;;;;11.98;5.57;;;;;;;;;;5135889;27;20019;-64
2021/09/25 06:07:30;;;;;;;12.07;4.97;;;;;;;;;;5082224;27;20025;-63
2021/09/25 06:09:56;;;;;;;11.90;5.55;;;;;;;;;;5031425;28;20048;-63
2021/09/25 06:12:22;;;;;;;19.00;6.47;;;;;;;;;;5071017;27;20019;-63
2021/09/25 06:14:51;;;;;;;9.15;4.88;;;;;;;;;;5056061;27;20093;-65
2021/09/25 06:17:17;;;;;;;15.30;5.90;;;;;;;;;;5031412;28;20021;-62
2021/09/25 06:19:42;;;;;;;16.77;5.72;;;;;;;;;;5031832;28;20021;-62
2021/09/25 06:22:08;;;;;;;14.13;6.10;;;;;;;;;;5026232;28;20025;-62
2021/09/25 06:24:34;;;;;;;17.95;5.80;;;;;;;;;;5011384;28;20053;-62
2021/09/25 06:27:00;;;;;;;16.60;5.10;;;;;;;;;;5011507;28;20083;-62
2021/09/25 06:29:26;;;;;;;12.77;5.32;;;;;;;;;;5011560;28;20065;-62
2021/09/25 06:31:52;;;;;;;13.60;5.55;;;;;;;;;;5079623;28;20033;-64
2021/09/25 06:34:18;;;;;;;12.75;5.43;;;;;;;;;;5011353;28;20030;-62
2021/09/25 06:36:44;;;;;;;16.48;5.75;;;;;;;;;;5011367;28;20101;-62
2021/09/25 06:39:10;;;;;;;11.35;5.28;;;;;;;;;;5010938;28;20427;-66
2021/09/25 06:41:37;;;;;;;10.02;5.28;;;;;;;;;;5108924;27;20023;-67
2021/09/25 06:44:03;;;;;;;14.00;5.60;;;;;;;;;;5135235;27;20481;-68
2021/09/25 06:46:38;;;;;;;18.23;6.65;;;;;;;;;;5093854;27;20465;-67
2021/09/25 06:49:08;;;;;;;12.43;5.07;;;;;;;;;;5111882;27;20025;-69
2021/09/25 06:51:34;;;;;;;18.63;5.30;;;;;;;;;;5135368;27;20022;-70
2021/09/25 06:54:00;;;;;;;23.05;7.38;;;;;;;;;;5134774;27;20066;-69
2021/09/25 06:56:26;;;;;;;19.67;6.68;;;;;;;;;;5116775;27;20026;-68
2021/09/25 06:58:52;;;;;;;16.80;7.10;;;;;;;;;;5135303;27;20034;-68
2021/09/25 07:01:18;;;;;;;23.10;7.47;;;;;;;;;;5097168;27;20027;-63
2021/09/25 07:03:44;;;;;;;26.40;8.52;;;;;;;;;;5101445;27;20029;-64
2021/09/25 07:06:10;;;;;;;23.20;8.32;;;;;;;;;;5088293;27;20016;-64
2021/09/25 07:08:36;;;;;;;20.95;7.40;;;;;;;;;;5066972;27;20645;-65
2021/09/25 07:11:02;;;;;;;28.35;8.43;;;;;;;;;;5076456;27;20384;-64
2021/09/25 07:13:28;;;;;;;37.50;7.53;;;;;;;;;;5110394;27;20102;-64
2021/09/25 07:15:54;;;;;;;24.50;6.95;;;;;;;;;;5134832;27;20529;-64
2021/09/25 07:18:20;;;;;;;30.42;7.50;;;;;;;;;;5134933;27;20031;-64
2021/09/25 07:20:47;;;;;;;24.13;8.30;;;;;;;;;;5135285;27;20050;-64
2021/09/25 07:23:13;;;;;;;25.02;8.15;;;;;;;;;;5134679;27;20027;-63
2021/09/25 07:25:39;;;;;;;68.93;10.18;;;;;;;;;;5134529;27;20072;-64
2021/09/25 07:28:06;;;;;;;42.33;9.23;;;;;;;;;;5134524;27;20055;-66
2021/09/25 07:30:33;;;;;;;44.72;10.32;;;;;;;;;;5134960;27;20031;-66
2021/09/25 07:33:00;;;;;;;39.00;10.10;;;;;;;;;;5134549;27;20455;-68
2021/09/25 07:35:27;;;;;;;37.45;12.45;;;;;;;;;;5134517;27;20030;-68
2021/09/25 07:37:53;;;;;;;41.42;9.80;;;;;;;;;;5134538;27;20459;-64
2021/09/25 07:40:19;;;;;;;51.72;13.38;;;;;;;;;;5113463;27;20027;-61
2021/09/25 07:42:45;;;;;;;78.50;13.07;;;;;;;;;;5134013;27;20023;-60
2021/09/25 07:45:11;;;;;;;41.70;13.80;;;;;;;;;;5133753;27;20067;-61
2021/09/25 07:47:37;;;;;;;52.58;14.57;;;;;;;;;;5134020;27;20470;-58
2021/09/25 07:50:04;;;;;;;54.03;15.30;;;;;;;;;;5098132;28;20041;-59
2021/09/25 07:52:32;;;;;;;48.85;13.50;;;;;;;;;;5128177;27;20026;-59
2021/09/25 07:54:58;;;;;;;48.55;16.58;;;;;;;;;;5125766;27;20502;-59
2021/09/25 07:57:24;;;;;;;42.72;16.60;;;;;;;;;;5077657;28;20022;-59
2021/09/25 07:59:50;;;;;;;41.58;15.65;;;;;;;;;;5010413;28;20022;-60
2021/09/25 08:02:16;;;;;;;49.72;16.42;;;;;;;;;;5010137;28;20038;-59
2021/09/25 08:04:42;;;;;;;58.08;16.33;;;;;;;;;;5077018;28;20033;-59
2021/09/25 08:07:08;;;;;;;50.97;16.10;;;;;;;;;;5009463;28;20030;-59
2021/09/25 08:09:34;;;;;;;46.33;16.08;;;;;;;;;;5009649;28;20038;-60
2021/09/25 08:12:00;;;;;;;44.70;15.15;;;;;;;;;;5009791;28;20034;-59
2021/09/25 08:14:26;;;;;;;43.90;15.60;;;;;;;;;;5077123;28;20030;-59
2021/09/25 08:16:52;;;;;;;49.35;14.60;;;;;;;;;;5010147;28;20069;-59
2021/09/25 08:19:18;;;;;;;43.13;14.48;;;;;;;;;;5009868;28;20030;-59
2021/09/25 08:21:44;;;;;;;34.28;13.65;;;;;;;;;;5009863;28;20083;-59
2021/09/25 08:24:10;;;;;;;50.72;15.15;;;;;;;;;;5009680;28;20077;-59
2021/09/25 08:26:36;;;;;;;39.92;14.48;;;;;;;;;;5009754;28;20065;-59
2021/09/25 08:29:04;;;;;;;47.28;15.93;;;;;;;;;;5009703;28;20124;-59
2021/09/25 08:31:30;;;;;;;44.88;15.80;;;;;;;;;;5010106;28;20033;-59
2021/09/25 08:33:56;;;;;;;46.17;16.52;;;;;;;;;;5009577;28;20022;-59
2021/09/25 08:36:22;;;;;;;45.45;17.45;;;;;;;;;;5009624;28;20101;-59
2021/09/25 08:38:48;;;;;;;36.63;14.63;;;;;;;;;;5009675;28;20083;-59
2021/09/25 08:41:15;;;;;;;47.25;15.68;;;;;;;;;;5087587;28;20032;-59
2021/09/25 08:43:41;;;;;;;44.45;15.18;;;;;;;;;;5133235;28;20011;-59
2021/09/25 08:46:08;;;;;;;36.80;14.80;;;;;;;;;;5133328;28;20106;-59
2021/09/25 08:48:35;;;;;;;43.92;15.32;;;;;;;;;;5133268;28;20103;-59
2021/09/25 08:51:01;;;;;;;40.92;15.25;;;;;;;;;;5133305;28;20031;-59
2021/09/25 08:53:27;;;;;;;37.35;14.85;;;;;;;;;;5133179;28;20031;-59
2021/09/25 08:55:53;;;;;;;42.28;15.40;;;;;;;;;;5114638;28;20035;-59
2021/09/25 08:58:19;;;;;;;45.38;15.77;;;;;;;;;;5133117;28;20052;-59
2021/09/25 09:00:49;;;;;;;44.38;16.85;;;;;;;;;;5133003;28;20044;-59
2021/09/25 09:03:21;;;;;;;43.47;15.10;;;;;;;;;;5133314;28;20027;-59
2021/09/25 09:05:48;;;;;;;48.67;15.50;;;;;;;;;;5133152;28;20460;-59
2021/09/25 09:08:14;;;;;;;37.50;14.65;;;;;;;;;;5132946;28;20050;-59
2021/09/25 09:10:40;;;;;;;35.20;14.10;;;;;;;;;;5133022;28;20023;-60
2021/09/25 09:13:07;;;;;;;37.67;15.43;;;;;;;;;;5132997;28;20497;-59
2021/09/25 09:15:37;;;;;;;34.72;13.82;;;;;;;;;;5132942;28;20328;-59
2021/09/25 09:18:03;;;;;;;32.10;13.05;;;;;;;;;;5135874;27;20015;-60
2021/09/25 09:20:29;;;;;;;30.85;13.18;;;;;;;;;;5136719;27;20023;-59
2021/09/25 09:23:14;;;;;;;37.85;14.18;;;;;;;;;;5136961;27;20054;-59
2021/09/25 09:25:41;;;;;;;32.75;12.75;;;;;;;;;;5136613;27;20043;-59
2021/09/25 09:28:11;;;;;;;33.35;13.82;;;;;;;;;;5136682;27;20018;-59
2021/09/25 09:30:45;;;;;;;31.35;13.00;;;;;;;;;;5136612;27;20027;-59
2021/09/25 09:33:11;;;;;;;33.05;13.75;;;;;;;;;;5136681;27;20084;-59
2021/09/25 09:35:37;;;;;;;35.50;13.13;;;;;;;;;;5136362;27;20031;-59
2021/09/25 09:38:03;;;;;;;40.10;12.63;;;;;;;;;;5136533;27;20030;-59
2021/09/25 09:40:29;;;;;;;30.67;12.93;;;;;;;;;;5136276;27;20084;-59
2021/09/25 09:42:55;;;;;;;32.58;12.52;;;;;;;;;;5136725;27;20045;-59
2021/09/25 09:45:28;;;;;;;31.52;12.18;;;;;;;;;;5136049;27;20027;-59
2021/09/25 09:47:57;;;;;;;31.48;12.25;;;;;;;;;;5136216;27;20530;-59
2021/09/25 09:50:23;;;;;;;29.35;12.50;;;;;;;;;;5135866;27;20062;-59
2021/09/25 09:52:49;;;;;;;30.52;12.52;;;;;;;;;;5136118;27;20019;-59
2021/09/25 09:55:25;;;;;;;29.10;11.90;;;;;;;;;;5135973;27;20050;-59
2021/09/25 09:58:00;;;;;;;28.67;11.15;;;;;;;;;;5136070;27;20030;-59
2021/09/25 10:00:27;;;;;;;29.60;11.98;;;;;;;;;;5136095;27;20027;-60
2021/09/25 10:02:53;;;;;;;27.38;11.90;;;;;;;;;;5135724;27;20098;-59
2021/09/25 10:05:19;;;;;;;26.63;11.98;;;;;;;;;;5135939;27;20041;-59
2021/09/25 10:07:46;;;;;;;29.25;11.50;;;;;;;;;;5135914;27;20019;-59
2021/09/25 10:10:12;;;;;;;28.63;13.05;;;;;;;;;;5135680;27;20024;-59
2021/09/25 10:12:40;;;;;;;29.40;11.88;;;;;;;;;;5117469;27;20027;-59
2021/09/25 10:15:07;;;;;;;28.10;12.43;;;;;;;;;;5135429;27;20031;-59
2021/09/25 10:17:33;;;;;;;26.77;11.32;;;;;;;;;;5135531;27;20019;-59
2021/09/25 10:20:00;;;;;;;28.30;12.25;;;;;;;;;;5135448;27;20023;-59
2021/09/25 10:22:28;;;;;;;25.88;12.20;;;;;;;;;;5135575;27;20072;-59
2021/09/25 10:24:56;;;;;;;24.80;10.30;;;;;;;;;;5135225;27;20475;-59
2021/09/25 10:27:23;;;;;;;24.92;10.73;;;;;;;;;;5135289;27;20034;-59
2021/09/25 10:29:50;;;;;;;25.38;11.02;;;;;;;;;;5116032;27;20039;-59
2021/09/25 10:32:30;;;;;;;25.40;11.13;;;;;;;;;;5135131;27;20038;-59
2021/09/25 10:35:16;;;;;;;33.17;11.65;;;;;;;;;;5135118;27;20038;-59
2021/09/25 10:37:45;;;;;;;22.58;10.73;;;;;;;;;;5135226;27;20024;-59
2021/09/25 10:40:37;;;;;;;27.55;11.02;;;;;;;;;;5134999;27;20023;-59
2021/09/25 10:43:15;;;;;;;24.50;11.55;;;;;;;;;;5132673;27;20478;-59
2021/09/25 10:45:41;;;;;;;29.50;10.80;;;;;;;;;;5135057;27;20752;-59
2021/09/25 10:48:13;;;;;;;22.63;10.10;;;;;;;;;;5134862;27;20023;-59
2021/09/25 10:50:39;;;;;;;31.15;11.10;;;;;;;;;;5134786;27;20092;-59
2021/09/25 10:53:05;;;;;;;24.75;10.55;;;;;;;;;;5134707;27;20458;-59
2021/09/25 10:55:31;;;;;;;27.25;10.80;;;;;;;;;;5134922;27;20474;-57
2021/09/25 10:58:15;;;;;;;20.15;9.85;;;;;;;;;;5135269;27;20019;-59
2021/09/25 11:00:52;;;;;;;21.25;10.90;;;;;;;;;;5135061;27;20114;-59
2021/09/25 11:03:37;;;;;;;25.48;10.18;;;;;;;;;;5134553;27;20038;-59
2021/09/25 11:06:07;;;;;;;19.33;10.35;;;;;;;;;;5134440;27;20019;-62
2021/09/25 11:08:34;;;;;;;22.50;10.80;;;;;;;;;;5134502;27;20508;-59
2021/09/25 11:11:11;;;;;;;28.35;11.77;;;;;;;;;;5116095;27;20037;-59
2021/09/25 11:13:55;;;;;;;21.20;10.98;;;;;;;;;;5134371;27;20027;-59
2021/09/25 11:16:40;;;;;;;23.25;10.75;;;;;;;;;;5134552;27;20023;-59
2021/09/25 11:19:09;;;;;;;23.00;11.45;;;;;;;;;;5134395;27;20034;-59
2021/09/25 11:21:35;;;;;;;23.38;11.85;;;;;;;;;;5134321;27;20030;-59
2021/09/25 11:24:01;;;;;;;22.90;11.93;;;;;;;;;;5134002;27;20047;-59
2021/09/25 11:26:27;;;;;;;26.02;11.18;;;;;;;;;;5134498;27;20058;-59
2021/09/25 11:29:05;;;;;;;23.77;11.38;;;;;;;;;;5134182;27;20111;-59
2021/09/25 11:31:31;;;;;;;25.60;12.13;;;;;;;;;;5134298;27;20071;-59
2021/09/25 11:33:57;;;;;;;23.55;11.68;;;;;;;;;;5115672;27;20039;-59
2021/09/25 11:36:23;;;;;;;25.90;11.65;;;;;;;;;;5134273;27;20024;-59
2021/09/25 11:38:49;;;;;;;21.67;11.77;;;;;;;;;;5134156;27;20477;-59
2021/09/25 11:41:18;;;;;;;27.58;12.48;;;;;;;;;;5133708;27;20019;-59
2021/09/25 11:43:55;;;;;;;29.05;13.02;;;;;;;;;;5133834;27;20050;-59
2021/09/25 11:46:21;;;;;;;26.48;13.43;;;;;;;;;;5134077;27;20061;-59
2021/09/25 11:48:47;;;;;;;24.73;12.93;;;;;;;;;;5133751;27;20490;-59
2021/09/25 11:51:13;;;;;;;21.20;12.35;;;;;;;;;;5133676;27;20027;-59
2021/09/25 11:53:44;;;;;;;23.88;12.80;;;;;;;;;;5133888;27;20400;-59
2021/09/25 11:56:10;;;;;;;26.13;13.23;;;;;;;;;;5133710;27;20108;-59
2021/09/25 11:58:36;;;;;;;23.75;12.45;;;;;;;;;;5133919;27;20423;-59
2021/09/25 12:01:03;;;;;;;22.98;12.50;;;;;;;;;;5133745;27;20486;-59
2021/09/25 12:03:31;;;;;;;25.83;12.55;;;;;;;;;;5133694;27;20066;-59
2021/09/25 12:05:59;;;;;;;27.10;13.23;;;;;;;;;;5133888;27;20019;-59
2021/09/25 12:08:27;;;;;;;22.38;12.77;;;;;;;;;;5133756;27;20023;-59
2021/09/25 12:10:54;;;;;;;22.33;12.55;;;;;;;;;;5134044;28;20118;-60
2021/09/25 12:13:24;;;;;;;24.52;12.77;;;;;;;;;;5133334;28;20094;-59
2021/09/25 12:15:51;;;;;;;30.77;13.55;;;;;;;;;;5133655;28;20035;-59
2021/09/25 12:18:21;;;;;;;22.30;12.43;;;;;;;;;;5133327;28;20023;-59
2021/09/25 12:20:47;;;;;;;21.88;12.80;;;;;;;;;;5133485;28;20023;-59
2021/09/25 12:23:16;;;;;;;23.83;12.82;;;;;;;;;;5133063;28;20030;-58
2021/09/25 12:25:42;;;;;;;23.55;13.00;;;;;;;;;;5133486;28;20037;-59
2021/09/25 12:28:23;;;;;;;24.85;13.57;;;;;;;;;;5133266;28;20023;-59
2021/09/25 12:30:49;;;;;;;27.70;14.25;;;;;;;;;;5133455;28;20119;-60
2021/09/25 12:33:17;;;;;;;27.00;14.75;;;;;;;;;;5133330;28;20062;-59
2021/09/25 12:35:53;;;;;;;27.38;13.98;;;;;;;;;;5133342;28;20455;-59
2021/09/25 12:38:20;;;;;;;31.00;15.35;;;;;;;;;;5133194;28;20034;-59
2021/09/25 12:40:46;;;;;;;25.45;15.40;;;;;;;;;;5133234;28;20080;-59
2021/09/25 12:43:12;;;;;;;30.30;16.20;;;;;;;;;;5133159;28;20027;-57
2021/09/25 12:45:38;;;;;;;25.60;14.95;;;;;;;;;;5133291;28;20102;-59
2021/09/25 12:48:14;;;;;;;27.35;15.82;;;;;;;;;;5133344;28;20382;-59
2021/09/25 12:50:48;;;;;;;27.42;18.00;;;;;;;;;;5133273;27;20026;-59
2021/09/25 12:53:16;;;;;;;28.60;18.08;;;;;;;;;;5136588;27;20064;-59
2021/09/25 12:55:42;;;;;;;32.47;20.35;;;;;;;;;;5137456;27;20027;-59
2021/09/25 12:58:09;;;;;;;30.58;19.30;;;;;;;;;;5137024;27;20114;-59
2021/09/25 13:00:35;;;;;;;32.08;19.65;;;;;;;;;;5137343;27;20084;-59
2021/09/25 13:03:02;;;;;;;32.70;19.75;;;;;;;;;;5137073;27;20023;-59
2021/09/25 13:05:29;;;;;;;29.05;18.48;;;;;;;;;;5136973;27;20054;-59
2021/09/25 13:07:55;;;;;;;35.95;20.13;;;;;;;;;;5136795;27;20489;-59
2021/09/25 13:10:23;;;;;;;32.40;20.25;;;;;;;;;;5137050;27;20050;-59
2021/09/25 13:12:50;;;;;;;33.63;19.73;;;;;;;;;;5118353;27;20023;-59
2021/09/25 13:15:16;;;;;;;35.00;19.98;;;;;;;;;;5136733;27;20051;-60
2021/09/25 13:17:43;;;;;;;36.08;19.70;;;;;;;;;;5136777;27;20100;-59
2021/09/25 13:20:11;;;;;;;34.30;19.40;;;;;;;;;;5137210;27;20034;-59
2021/09/25 13:22:37;;;;;;;29.45;19.88;;;;;;;;;;5136878;27;20072;-59
2021/09/25 13:25:05;;;;;;;36.30;19.40;;;;;;;;;;5136513;27;20133;-59
2021/09/25 13:27:31;;;;;;;27.77;19.23;;;;;;;;;;5118081;27;20096;-59
2021/09/25 13:29:58;;;;;;;34.38;20.38;;;;;;;;;;5136445;27;20444;-59
2021/09/25 13:32:24;;;;;;;32.92;19.95;;;;;;;;;;5136737;27;20054;-59
2021/09/25 13:34:51;;;;;;;35.25;20.88;;;;;;;;;;5136486;27;20059;-60
2021/09/25 13:37:17;;;;;;;34.40;21.05;;;;;;;;;;5136033;27;20474;-59
2021/09/25 13:39:43;;;;;;;37.95;19.77;;;;;;;;;;5136338;27;20374;-59
2021/09/25 13:42:09;;;;;;;31.05;19.38;;;;;;;;;;5136410;27;20110;-60
2021/09/25 13:44:36;;;;;;;30.27;19.40;;;;;;;;;;5136139;27;20114;-59
2021/09/25 13:47:02;;;;;;;28.60;18.63;;;;;;;;;;5136260;27;20389;-59
2021/09/25 13:49:28;;;;;;;25.77;18.23;;;;;;;;;;5136427;27;20096;-59
2021/09/25 13:51:54;;;;;;;27.30;18.13;;;;;;;;;;5135778;27;20023;-59
2021/09/25 13:54:20;;;;;;;29.90;17.95;;;;;;;;;;5136289;27;20027;-59
2021/09/25 13:56:46;;;;;;;26.25;17.63;;;;;;;;;;5136024;27;20037;-59
2021/09/25 13:59:12;;;;;;;28.00;17.30;;;;;;;;;;5135862;27;20035;-59
2021/09/25 14:01:39;;;;;;;29.55;17.40;;;;;;;;;;5136109;27;20023;-59
2021/09/25 14:04:05;;;;;;;27.33;18.35;;;;;;;;;;5135934;27;20106;-59
2021/09/25 14:06:31;;;;;;;25.90;17.02;;;;;;;;;;5135573;27;20109;-59
2021/09/25 14:08:57;;;;;;;28.05;18.17;;;;;;;;;;5135586;27;20031;-59
2021/09/25 14:11:23;;;;;;;27.60;17.75;;;;;;;;;;5135723;27;20085;-59
2021/09/25 14:13:49;;;;;;;26.17;17.00;;;;;;;;;;5135672;27;20029;-59
2021/09/25 14:16:15;;;;;;;26.52;17.20;;;;;;;;;;5135748;27;20098;-59
2021/09/25 14:18:42;;;;;;;23.58;16.23;;;;;;;;;;5135607;27;20058;-59
2021/09/25 14:21:10;;;;;;;28.23;16.75;;;;;;;;;;5135439;27;20034;-59
2021/09/25 14:23:36;;;;;;;24.48;16.52;;;;;;;;;;5116925;27;20171;-59
2021/09/25 14:26:03;;;;;;;25.15;16.58;;;;;;;;;;5135599;27;20494;-59
2021/09/25 14:28:29;;;;;;;27.80;16.52;;;;;;;;;;5135256;27;20096;-59